sensor_id;sensor_type;location;lat;lon;timestamp;pressure;altitude;pressure_sealevel;temperature;humidity
3590;BME280;1809;48.470;9.226;2023-04-07T00:01:35;56083.47;;;6.21;100.00
3590;BME280;1809;48.470;9.226;2023-04-07T00:04:01;58433.00;;;6.19;100.00
3590;BME280;1809;48.470;9.226;2023-04-07T00:06:26;62138.56;;;6.25;100.00
3590;BME280;1809;48.470;9.226;2023-04-07T00:08:53;63139.94;;;6.17;100.00
3590;BME280;1809;48.470;9.226;2023-04-07T00:11:18;63139.41;;;6.17;100.00
3590;BME280;1809;48.470;9.226;2023-04-07T00:13:43;65160.88;;;6.18;100.00
3590;BME280;1809;48.470;9.226;2023-04-07T00:16:09;61122.25;;;6.18;100.00
3590;BME280;1809;48.470;9.226;2023-04-07T00:18:35;55747.63;;;6.21;100.00
3590;BME280;1809;48.470;9.226;2023-04-07T00:21:00;56418.91;;;6.21;100.00
3590;BME280;1809;48.470;9.226;2023-04-07T00:23:25;54400.56;;;6.17;100.00
3590;BME280;1809;48.470;9.226;2023-04-07T00:25:51;52389.25;;;6.19;100.00
3590;BME280;1809;48.470;9.226;2023-04-07T00:28:16;52058.00;;;6.24;100.00
3590;BME280;1809;48.470;9.226;2023-04-07T00:30:42;53405.41;;;6.30;100.00
3590;BME280;1809;48.470;9.226;2023-04-07T00:33:07;56758.06;;;6.24;100.00
3590;BME280;1809;48.470;9.226;2023-04-07T00:35:32;55419.00;;;6.29;100.00
3590;BME280;1809;48.470;9.226;2023-04-07T00:37:58;56088.50;;;6.27;100.00
3590;BME280;1809;48.470;9.226;2023-04-07T00:40:23;54420.91;;;6.40;100.00
3590;BME280;1809;48.470;9.226;2023-04-07T00:42:49;48713.47;;;6.35;100.00
3590;BME280;1809;48.470;9.226;2023-04-07T00:45:14;47370.56;;;6.32;100.00
3590;BME280;1809;48.470;9.226;2023-04-07T00:47:39;48376.72;;;6.33;100.00
3590;BME280;1809;48.470;9.226;2023-04-07T00:50:05;46708.06;;;6.42;100.00
3590;BME280;1809;48.470;9.226;2023-04-07T00:52:31;42688.81;;;6.41;100.00
3590;BME280;1809;48.470;9.226;2023-04-07T00:54:58;35668.84;;;6.41;100.00
3590;BME280;1809;48.470;9.226;2023-04-07T00:57:23;21343.81;;;6.54;100.00
3590;BME280;1809;48.470;9.226;2023-04-07T00:59:50;8067.72;;;6.59;100.00
3590;BME280;1809;48.470;9.226;2023-04-07T01:05:12;2110.00;;;6.58;100.00
3590;BME280;1809;48.470;9.226;2023-04-07T01:07:49;457.00;;;6.65;100.00
3590;BME280;1809;48.470;9.226;2023-04-07T01:10:21;-5157.56;;;6.66;100.00
3590;BME280;1809;48.470;9.226;2023-04-07T01:12:59;1448.84;;;6.70;100.00
3590;BME280;1809;48.470;9.226;2023-04-07T01:15:29;-2186.34;;;6.66;100.00
3590;BME280;1809;48.470;9.226;2023-04-07T01:18:01;-5157.66;;;6.67;100.00
3590;BME280;1809;48.470;9.226;2023-04-07T01:20:34;-3176.72;;;6.61;100.00
3590;BME280;1809;48.470;9.226;2023-04-07T01:23:04;-864.97;;;6.67;100.00
3590;BME280;1809;48.470;9.226;2023-04-07T01:28:39;4757.09;;;6.68;100.00
3590;BME280;1809;48.470;9.226;2023-04-07T01:31:08;126.53;;;6.60;100.00
3590;BME280;1809;48.470;9.226;2023-04-07T01:33:38;5087.56;;;6.60;100.00
3590;BME280;1809;48.470;9.226;2023-04-07T01:36:08;2771.38;;;6.57;100.00
3590;BME280;1809;48.470;9.226;2023-04-07T01:38:35;7736.63;;;6.61;100.00
3590;BME280;1809;48.470;9.226;2023-04-07T01:41:02;12046.44;;;6.64;100.00
3590;BME280;1809;48.470;9.226;2023-04-07T01:43:30;10388.44;;;6.65;100.00
3590;BME280;1809;48.470;9.226;2023-04-07T01:45:56;7735.72;;;6.53;100.00
3590;BME280;1809;48.470;9.226;2023-04-07T01:48:22;12046.78;;;6.66;100.00
3590;BME280;1809;48.470;9.226;2023-04-07T01:50:49;6743.28;;;6.64;100.00
3590;BME280;1809;48.470;9.226;2023-04-07T01:53:15;7074.59;;;6.65;100.00
3590;BME280;1809;48.470;9.226;2023-04-07T01:55:45;11713.41;;;6.57;100.00
3590;BME280;1809;48.470;9.226;2023-04-07T01:58:11;12377.78;;;6.62;100.00
3590;BME280;1809;48.470;9.226;2023-04-07T02:00:37;18686.53;;;6.62;100.00
3590;BME280;1809;48.470;9.226;2023-04-07T02:03:19;8729.97;;;6.56;100.00
3590;BME280;1809;48.470;9.226;2023-04-07T02:05:56;3433.31;;;6.66;100.00
3590;BME280;1809;48.470;9.226;2023-04-07T02:08:27;126.56;;;6.58;100.00
3590;BME280;1809;48.470;9.226;2023-04-07T02:10:54;-3837.38;;;6.66;100.00
3590;BME280;1809;48.470;9.226;2023-04-07T02:13:22;-8126.22;;;6.67;100.00
3590;BME280;1809;48.470;9.226;2023-04-07T02:15:49;-6806.97;;;6.65;100.00
3590;BME280;1809;48.470;9.226;2023-04-07T02:18:15;-9776.09;;;6.77;100.00
3590;BME280;1809;48.470;9.226;2023-04-07T02:20:44;-14925.72;;;6.73;100.00
3590;BME280;1809;48.470;9.226;2023-04-07T02:23:11;-8126.97;;;6.72;100.00
3590;BME280;1809;48.470;9.226;2023-04-07T02:25:37;-6808.09;;;6.74;100.00
3590;BME280;1809;48.470;9.226;2023-04-07T02:28:03;-2517.28;;;6.78;100.00
3590;BME280;1809;48.470;9.226;2023-04-07T02:30:31;-3507.16;;;6.65;100.00
3590;BME280;1809;48.470;9.226;2023-04-07T02:32:56;-3837.44;;;6.67;100.00
3590;BME280;1809;48.470;9.226;2023-04-07T02:35:22;-3507.22;;;6.66;100.00
3590;BME280;1809;48.470;9.226;2023-04-07T02:37:49;-3838.28;;;6.78;100.00
3590;BME280;1809;48.470;9.226;2023-04-07T02:40:14;-11424.50;;;6.82;100.00
3590;BME280;1809;48.470;9.226;2023-04-07T02:42:40;-16361.78;;;6.91;100.00
3590;BME280;1809;48.470;9.226;2023-04-07T02:45:06;-16361.91;;;6.92;100.00
3590;BME280;1809;48.470;9.226;2023-04-07T02:47:33;-16364.16;;;7.00;100.00
3590;BME280;1809;48.470;9.226;2023-04-07T02:49:59;-16362.34;;;6.93;100.00
3590;BME280;1809;48.470;9.226;2023-04-07T02:52:25;-16363.03;;;6.96;100.00
3590;BME280;1809;48.470;9.226;2023-04-07T02:54:50;-16362.47;;;6.94;100.00
3590;BME280;1809;48.470;9.226;2023-04-07T02:57:16;-16361.63;;;6.91;100.00
3590;BME280;1809;48.470;9.226;2023-04-07T02:59:41;-16361.06;;;6.89;100.00
3590;BME280;1809;48.470;9.226;2023-04-07T03:02:07;-16362.75;;;6.95;100.00
3590;BME280;1809;48.470;9.226;2023-04-07T03:04:33;-16363.19;;;6.96;100.00
3590;BME280;1809;48.470;9.226;2023-04-07T03:06:58;-16362.91;;;6.95;100.00
3590;BME280;1809;48.470;9.226;2023-04-07T03:09:24;-16362.06;;;6.92;100.00
3590;BME280;1809;48.470;9.226;2023-04-07T03:11:50;-16364.72;;;7.02;100.00
3590;BME280;1809;48.470;9.226;2023-04-07T03:14:16;-16365.56;;;7.05;100.00
3590;BME280;1809;48.470;9.226;2023-04-07T03:16:41;-16364.44;;;7.01;100.00
3590;BME280;1809;48.470;9.226;2023-04-07T03:19:07;-16363.88;;;6.99;100.00
3590;BME280;1809;48.470;9.226;2023-04-07T03:21:33;-16363.47;;;6.97;100.00
3590;BME280;1809;48.470;9.226;2023-04-07T03:23:58;-16362.47;;;6.94;100.00
3590;BME280;1809;48.470;9.226;2023-04-07T03:26:23;-16362.47;;;6.94;100.00
3590;BME280;1809;48.470;9.226;2023-04-07T03:28:49;-16363.47;;;6.97;100.00
3590;BME280;1809;48.470;9.226;2023-04-07T03:31:14;-16364.44;;;7.01;100.00
3590;BME280;1809;48.470;9.226;2023-04-07T03:33:40;-16365.56;;;7.05;100.00
3590;BME280;1809;48.470;9.226;2023-04-07T03:36:05;-16363.31;;;6.97;100.00
3590;BME280;1809;48.470;9.226;2023-04-07T03:38:31;-16363.59;;;6.98;100.00
3590;BME280;1809;48.470;9.226;2023-04-07T03:40:56;-16365.28;;;7.04;100.00
3590;BME280;1809;48.470;9.226;2023-04-07T03:43:22;-16363.19;;;6.96;100.00
3590;BME280;1809;48.470;9.226;2023-04-07T03:45:47;-16362.06;;;6.92;100.00
3590;BME280;1809;48.470;9.226;2023-04-07T03:48:12;-15605.06;;;6.95;100.00
3590;BME280;1809;48.470;9.226;2023-04-07T03:50:39;-4499.91;;;6.93;100.00
3590;BME280;1809;48.470;9.226;2023-04-07T03:53:04;-8789.66;;;6.93;100.00
3590;BME280;1809;48.470;9.226;2023-04-07T03:55:30;-5489.94;;;6.89;100.00
3590;BME280;1809;48.470;9.226;2023-04-07T03:57:56;-2518.47;;;6.99;100.00
3590;BME280;1809;48.470;9.226;2023-04-07T04:00:21;-3178.50;;;6.88;100.00
3590;BME280;1809;48.470;9.226;2023-04-07T04:02:47;456.88;;;6.85;100.00
3590;BME280;1809;48.470;9.226;2023-04-07T04:05:12;4427.13;;;6.85;100.00
3590;BME280;1809;48.470;9.226;2023-04-07T04:07:37;8732.47;;;6.76;100.00
3590;BME280;1809;48.470;9.226;2023-04-07T04:10:03;17693.47;;;6.76;100.00
3590;BME280;1809;48.470;9.226;2023-04-07T04:12:28;19688.41;;;6.77;100.00
3590;BME280;1809;48.470;9.226;2023-04-07T04:14:54;20684.88;;;6.73;100.00
3590;BME280;1809;48.470;9.226;2023-04-07T04:17:19;21680.84;;;6.67;100.00
3590;BME280;1809;48.470;9.226;2023-04-07T04:19:44;26343.44;;;6.71;100.00
3590;BME280;1809;48.470;9.226;2023-04-07T04:22:10;25340.03;;;6.61;100.00
3590;BME280;1809;48.470;9.226;2023-04-07T04:24:35;26341.75;;;6.67;100.00
3590;BME280;1809;48.470;9.226;2023-04-07T04:27:00;29340.59;;;6.65;100.00
3590;BME280;1809;48.470;9.226;2023-04-07T04:29:26;26675.16;;;6.67;100.00
3590;BME280;1809;48.470;9.226;2023-04-07T04:31:51;25674.72;;;6.65;100.00
3590;BME280;1809;48.470;9.226;2023-04-07T04:34:17;23012.97;;;6.70;100.00
3590;BME280;1809;48.470;9.226;2023-04-07T04:36:42;25009.41;;;6.67;100.00
3590;BME280;1809;48.470;9.226;2023-04-07T04:39:08;29339.19;;;6.62;100.00
3590;BME280;1809;48.470;9.226;2023-04-07T04:41:33;31010.69;;;6.70;100.00
3590;BME280;1809;48.470;9.226;2023-04-07T04:43:58;32340.34;;;6.60;100.00
3590;BME280;1809;48.470;9.226;2023-04-07T04:46:24;30343.47;;;6.70;100.00
3590;BME280;1809;48.470;9.226;2023-04-07T04:48:50;22680.16;;;6.70;100.00
3590;BME280;1809;48.470;9.226;2023-04-07T04:51:18;22345.25;;;6.64;100.00
3590;BME280;1809;48.470;9.226;2023-04-07T04:53:44;27339.22;;;6.62;100.00
3590;BME280;1809;48.470;9.226;2023-04-07T04:56:09;30344.72;;;6.72;100.00
3590;BME280;1809;48.470;9.226;2023-04-07T04:58:34;30341.56;;;6.66;100.00
3590;BME280;1809;48.470;9.226;2023-04-07T05:01:00;31342.09;;;6.65;100.00
3590;BME280;1809;48.470;9.226;2023-04-07T05:03:27;30672.91;;;6.61;100.00
3590;BME280;1809;48.470;9.226;2023-04-07T05:05:52;32343.44;;;6.66;100.00
3590;BME280;1809;48.470;9.226;2023-04-07T05:08:17;39021.34;;;6.60;100.00
3590;BME280;1809;48.470;9.226;2023-04-07T05:10:43;43366.91;;;6.54;100.00
3590;BME280;1809;48.470;9.226;2023-04-07T05:13:08;47049.25;;;6.51;100.00
3590;BME280;1809;48.470;9.226;2023-04-07T05:15:33;51077.38;;;6.56;100.00
3590;BME280;1809;48.470;9.226;2023-04-07T05:17:59;50738.13;;;6.51;100.00
3590;BME280;1809;48.470;9.226;2023-04-07T05:20:24;49403.59;;;6.60;100.00
3590;BME280;1809;48.470;9.226;2023-04-07T05:22:49;43706.66;;;6.61;100.00
3590;BME280;1809;48.470;9.226;2023-04-07T05:25:15;41027.56;;;6.59;100.00
3590;BME280;1809;48.470;9.226;2023-04-07T05:27:40;40357.81;;;6.58;100.00
3590;BME280;1809;48.470;9.226;2023-04-07T05:30:06;42029.06;;;6.55;100.00
3590;BME280;1809;48.470;9.226;2023-04-07T05:32:32;44039.75;;;6.58;100.00
3590;BME280;1809;48.470;9.226;2023-04-07T05:34:57;43704.53;;;6.58;100.00
3590;BME280;1809;48.470;9.226;2023-04-07T05:37:22;45045.63;;;6.60;100.00
3590;BME280;1809;48.470;9.226;2023-04-07T05:39:47;46725.47;;;6.66;100.00
3590;BME280;1809;48.470;9.226;2023-04-07T05:42:13;45389.06;;;6.71;100.00
3590;BME280;1809;48.470;9.226;2023-04-07T05:44:38;41704.84;;;6.71;100.00
3590;BME280;1809;48.470;9.226;2023-04-07T05:47:03;38700.38;;;6.81;100.00
3590;BME280;1809;48.470;9.226;2023-04-07T05:49:33;31683.38;;;6.80;100.00
3590;BME280;1809;48.470;9.226;2023-04-07T05:51:58;30683.69;;;6.83;100.00
3590;BME280;1809;48.470;9.226;2023-04-07T05:54:24;30350.28;;;6.84;100.00
3590;BME280;1809;48.470;9.226;2023-04-07T05:56:49;30684.44;;;6.85;100.00
3590;BME280;1809;48.470;9.226;2023-04-07T05:59:15;33026.09;;;6.94;100.00
3590;BME280;1809;48.470;9.226;2023-04-07T06:01:41;29355.59;;;6.97;100.00
3590;BME280;1809;48.470;9.226;2023-04-07T06:04:06;27354.03;;;6.96;100.00
3590;BME280;1809;48.470;9.226;2023-04-07T06:06:32;26020.84;;;6.96;100.00
3590;BME280;1809;48.470;9.226;2023-04-07T06:08:57;19367.59;;;7.16;100.00
3590;BME280;1809;48.470;9.226;2023-04-07T06:11:22;14046.91;;;7.09;100.00
3590;BME280;1809;48.470;9.226;2023-04-07T06:13:48;17372.53;;;7.18;100.00
3590;BME280;1809;48.470;9.226;2023-04-07T06:16:13;11060.22;;;7.17;100.00
3590;BME280;1809;48.470;9.226;2023-04-07T06:18:39;9400.47;;;7.12;100.00
3590;BME280;1809;48.470;9.226;2023-04-07T06:21:04;14714.00;;;7.21;100.00
3590;BME280;1809;48.470;9.226;2023-04-07T06:23:30;10398.38;;;7.29;100.00
3590;BME280;1809;48.470;9.226;2023-04-07T06:25:55;4761.72;;;7.40;100.00
3590;BME280;1809;48.470;9.226;2023-04-07T06:28:21;-2521.19;;;7.49;100.00
3590;BME280;1809;48.470;9.226;2023-04-07T06:30:46;-6816.63;;;7.42;100.00
3590;BME280;1809;48.470;9.226;2023-04-07T06:33:12;-5166.22;;;7.54;100.00
3590;BME280;1809;48.470;9.226;2023-04-07T06:35:38;-15878.97;;;7.76;100.00
3590;BME280;1809;48.470;9.226;2023-04-07T06:38:03;-16385.25;;;7.76;100.00
3590;BME280;1809;48.470;9.226;2023-04-07T06:40:32;-16383.56;;;7.70;100.00
3590;BME280;1809;48.470;9.226;2023-04-07T06:42:57;-16386.94;;;7.82;100.00
3590;BME280;1809;48.470;9.226;2023-04-07T06:45:23;-16392.84;;;8.03;100.00
3590;BME280;1809;48.470;9.226;2023-04-07T06:47:48;-16398.75;;;8.24;100.00
3590;BME280;1809;48.470;9.226;2023-04-07T06:50:14;-16404.25;;;8.44;100.00
3590;BME280;1809;48.470;9.226;2023-04-07T06:52:39;-16411.56;;;8.70;100.00
3590;BME280;1809;48.470;9.226;2023-04-07T06:55:05;-16417.88;;;8.93;100.00
3590;BME280;1809;48.470;9.226;2023-04-07T06:57:31;-16428.69;;;9.32;100.00
3590;BME280;1809;48.470;9.226;2023-04-07T06:59:57;-16435.56;;;9.56;100.00
3590;BME280;1809;48.470;9.226;2023-04-07T07:02:22;-16438.81;;;9.68;100.00
3590;BME280;1809;48.470;9.226;2023-04-07T07:04:48;-16440.34;;;9.73;100.00
3590;BME280;1809;48.470;9.226;2023-04-07T07:07:13;-16434.47;;;9.52;100.00
3590;BME280;1809;48.470;9.226;2023-04-07T07:09:38;-16434.75;;;9.53;100.00
3590;BME280;1809;48.470;9.226;2023-04-07T07:12:04;-16435.88;;;9.57;100.00
3590;BME280;1809;48.470;9.226;2023-04-07T07:14:30;-16437.53;;;9.63;100.00
3590;BME280;1809;48.470;9.226;2023-04-07T07:16:55;-16437.25;;;9.62;100.00
3590;BME280;1809;48.470;9.226;2023-04-07T07:19:21;-16443.59;;;9.85;100.00
3590;BME280;1809;48.470;9.226;2023-04-07T07:21:46;-16447.66;;;10.00;100.00
3590;BME280;1809;48.470;9.226;2023-04-07T07:24:11;-16451.88;;;10.15;100.00
3590;BME280;1809;48.470;9.226;2023-04-07T07:26:37;-16456.38;;;10.31;100.00
3590;BME280;1809;48.470;9.226;2023-04-07T07:29:02;-16460.72;;;10.47;100.00
3590;BME280;1809;48.470;9.226;2023-04-07T07:31:27;-16464.53;;;10.60;100.00
3590;BME280;1809;48.470;9.226;2023-04-07T07:33:53;-16471.53;;;10.86;100.00
3590;BME280;1809;48.470;9.226;2023-04-07T07:36:18;-16478.00;;;11.09;100.00
3590;BME280;1809;48.470;9.226;2023-04-07T07:38:43;-16483.06;;;11.27;100.00
3590;BME280;1809;48.470;9.226;2023-04-07T07:41:09;-16489.94;;;11.52;100.00
3590;BME280;1809;48.470;9.226;2023-04-07T07:43:34;-16490.63;;;11.54;100.00
3590;BME280;1809;48.470;9.226;2023-04-07T07:46:01;-16500.75;;;11.91;100.00
3590;BME280;1809;48.470;9.226;2023-04-07T07:48:26;-16503.28;;;12.00;100.00
3590;BME280;1809;48.470;9.226;2023-04-07T07:50:51;-16505.25;;;12.07;100.00
3590;BME280;1809;48.470;9.226;2023-04-07T07:53:17;-16497.94;;;11.80;100.00
3590;BME280;1809;48.470;9.226;2023-04-07T07:55:43;-16500.19;;;11.89;100.00
3590;BME280;1809;48.470;9.226;2023-04-07T07:58:08;-16491.91;;;11.59;100.00
3590;BME280;1809;48.470;9.226;2023-04-07T08:00:33;-16502.56;;;11.97;100.00
3590;BME280;1809;48.470;9.226;2023-04-07T08:02:59;-16503.84;;;12.02;100.00
3590;BME280;1809;48.470;9.226;2023-04-07T08:05:24;-16505.66;;;12.08;100.00
3590;BME280;1809;48.470;9.226;2023-04-07T08:07:51;-16508.63;;;12.19;100.00
3590;BME280;1809;48.470;9.226;2023-04-07T08:10:16;-16517.03;;;12.49;100.00
3590;BME280;1809;48.470;9.226;2023-04-07T08:12:44;-16523.75;;;12.73;100.00
3590;BME280;1809;48.470;9.226;2023-04-07T08:15:09;-16525.03;;;12.78;100.00
3590;BME280;1809;48.470;9.226;2023-04-07T08:17:35;-16527.84;;;12.88;100.00
3590;BME280;1809;48.470;9.226;2023-04-07T08:20:01;-16531.91;;;13.03;100.00
3590;BME280;1809;48.470;9.226;2023-04-07T08:22:27;-16543.97;;;13.46;100.00
3590;BME280;1809;48.470;9.226;2023-04-07T08:24:53;-16553.78;;;13.81;100.00
3590;BME280;1809;48.470;9.226;2023-04-07T08:27:18;-16558.28;;;13.97;100.00
3590;BME280;1809;48.470;9.226;2023-04-07T08:29:45;-16563.59;;;14.17;100.00
3590;BME280;1809;48.470;9.226;2023-04-07T08:32:10;-16565.00;;;14.22;100.00
3590;BME280;1809;48.470;9.226;2023-04-07T08:34:36;-16571.19;;;14.44;100.00
3590;BME280;1809;48.470;9.226;2023-04-07T08:37:01;-16570.06;;;14.40;100.00
3590;BME280;1809;48.470;9.226;2023-04-07T08:39:26;-16555.19;;;13.86;100.00
3590;BME280;1809;48.470;9.226;2023-04-07T08:41:53;-16570.91;;;14.43;100.00
3590;BME280;1809;48.470;9.226;2023-04-07T08:44:20;-16572.88;;;14.50;100.00
3590;BME280;1809;48.470;9.226;2023-04-07T08:46:47;-16563.47;;;14.16;100.00
3590;BME280;1809;48.470;9.226;2023-04-07T08:49:16;-16556.88;;;13.92;100.00
3590;BME280;1809;48.470;9.226;2023-04-07T08:51:45;-16542.56;;;13.41;100.00
3590;BME280;1809;48.470;9.226;2023-04-07T08:54:13;-16539.22;;;13.29;100.00
3590;BME280;1809;48.470;9.226;2023-04-07T08:56:41;-16536.53;;;13.19;100.00
3590;BME280;1809;48.470;9.226;2023-04-07T08:59:08;-16535.13;;;13.14;100.00
3590;BME280;1809;48.470;9.226;2023-04-07T09:01:35;-16530.78;;;12.99;100.00
3590;BME280;1809;48.470;9.226;2023-04-07T09:04:02;-16517.03;;;12.49;100.00
3590;BME280;1809;48.470;9.226;2023-04-07T09:06:31;-16523.06;;;12.71;100.00
3590;BME280;1809;48.470;9.226;2023-04-07T09:08:57;-16529.66;;;12.94;100.00
3590;BME280;1809;48.470;9.226;2023-04-07T09:11:23;-16525.16;;;12.78;100.00
3590;BME280;1809;48.470;9.226;2023-04-07T09:13:49;-16538.78;;;13.27;100.00
3590;BME280;1809;48.470;9.226;2023-04-07T09:16:15;-16535.00;;;13.14;100.00
3590;BME280;1809;48.470;9.226;2023-04-07T09:18:40;-16535.84;;;13.17;100.00
3590;BME280;1809;48.470;9.226;2023-04-07T09:21:07;-16537.53;;;13.23;100.00
3590;BME280;1809;48.470;9.226;2023-04-07T09:23:41;-16530.78;;;12.99;100.00
3590;BME280;1809;48.470;9.226;2023-04-07T09:26:24;-16526.84;;;12.84;100.00
3590;BME280;1809;48.470;9.226;2023-04-07T09:28:56;-16517.88;;;12.52;100.00
3590;BME280;1809;48.470;9.226;2023-04-07T09:31:23;-16513.66;;;12.37;100.00
3590;BME280;1809;48.470;9.226;2023-04-07T09:33:50;-16530.91;;;12.99;100.00
3590;BME280;1809;48.470;9.226;2023-04-07T09:36:16;-16520.69;;;12.62;100.00
3590;BME280;1809;48.470;9.226;2023-04-07T09:38:43;-16518.44;;;12.54;100.00
3590;BME280;1809;48.470;9.226;2023-04-07T09:41:13;-16511.69;;;12.30;100.00
3590;BME280;1809;48.470;9.226;2023-04-07T09:43:41;-16502.72;;;11.98;100.00
3590;BME280;1809;48.470;9.226;2023-04-07T09:46:18;-16507.91;;;12.16;100.00
3590;BME280;1809;48.470;9.226;2023-04-07T09:48:45;-16518.72;;;12.55;100.00
3590;BME280;1809;48.470;9.226;2023-04-07T09:51:15;-16528.53;;;12.90;100.00
3590;BME280;1809;48.470;9.226;2023-04-07T09:53:48;-16540.31;;;13.33;100.00
3590;BME280;1809;48.470;9.226;2023-04-07T09:56:15;-16543.13;;;13.43;100.00
3590;BME280;1809;48.470;9.226;2023-04-07T09:58:44;-16555.34;;;13.87;100.00
3590;BME280;1809;48.470;9.226;2023-04-07T10:01:10;-16566.69;;;14.28;100.00
3590;BME280;1809;48.470;9.226;2023-04-07T10:03:36;-16561.66;;;14.10;100.00
3590;BME280;1809;48.470;9.226;2023-04-07T10:06:02;-16560.66;;;14.06;100.00
3590;BME280;1809;48.470;9.226;2023-04-07T10:08:30;-16575.53;;;14.60;100.00
3590;BME280;1809;48.470;9.226;2023-04-07T10:10:57;-16583.53;;;14.88;100.00
3590;BME280;1809;48.470;9.226;2023-04-07T10:13:24;-16599.06;;;15.44;100.00
3590;BME280;1809;48.470;9.226;2023-04-07T10:15:50;-16603.28;;;15.59;100.00
3590;BME280;1809;48.470;9.226;2023-04-07T10:18:19;-16591.09;;;15.16;100.00
3590;BME280;1809;48.470;9.226;2023-04-07T10:20:46;-16597.41;;;15.38;100.00
3590;BME280;1809;48.470;9.226;2023-04-07T10:25:50;-16599.50;;;15.46;100.00
3590;BME280;1809;48.470;9.226;2023-04-07T10:28:19;-16596.69;;;15.36;100.00
3590;BME280;1809;48.470;9.226;2023-04-07T10:30:47;-16600.06;;;15.48;100.00
3590;BME280;1809;48.470;9.226;2023-04-07T10:33:12;-16595.00;;;15.30;100.00
3590;BME280;1809;48.470;9.226;2023-04-07T10:36:04;-16601.59;;;15.53;100.00
3590;BME280;1809;48.470;9.226;2023-04-07T10:38:32;-16604.81;;;15.65;100.00
3590;BME280;1809;48.470;9.226;2023-04-07T10:40:58;-16599.78;;;15.47;100.00
3590;BME280;1809;48.470;9.226;2023-04-07T10:43:37;-16590.53;;;15.14;100.00
3590;BME280;1809;48.470;9.226;2023-04-07T10:46:03;-16605.94;;;15.69;100.00
3590;BME280;1809;48.470;9.226;2023-04-07T10:48:29;-16621.06;;;16.24;100.00
3590;BME280;1809;48.470;9.226;2023-04-07T10:53:28;-16621.06;;;16.24;100.00
3590;BME280;1809;48.470;9.226;2023-04-07T10:55:53;-16625.84;;;16.41;100.00
3590;BME280;1809;48.470;9.226;2023-04-07T10:58:30;-16628.63;;;16.51;100.00
3590;BME280;1809;48.470;9.226;2023-04-07T11:03:29;-16615.19;;;16.02;98.32
3590;BME280;1809;48.470;9.226;2023-04-07T11:06:07;-16619.13;;;16.17;99.69
3590;BME280;1809;48.470;9.226;2023-04-07T11:08:41;-16617.72;;;16.11;96.07
3590;BME280;1809;48.470;9.226;2023-04-07T11:11:08;-16616.03;;;16.05;97.01
3590;BME280;1809;48.470;9.226;2023-04-07T11:13:45;-16616.72;;;16.08;91.60
3590;BME280;1809;48.470;9.226;2023-04-07T11:16:11;-16608.06;;;15.77;93.86
3590;BME280;1809;48.470;9.226;2023-04-07T11:18:38;-16611.84;;;15.90;93.82
3590;BME280;1809;48.470;9.226;2023-04-07T11:21:04;-16614.78;;;16.01;95.38
3590;BME280;1809;48.470;9.226;2023-04-07T11:23:43;-16617.84;;;16.12;93.29
3590;BME280;1809;48.470;9.226;2023-04-07T11:26:11;-16621.22;;;16.24;89.48
3590;BME280;1809;48.470;9.226;2023-04-07T11:28:54;-16622.63;;;16.29;90.61
3590;BME280;1809;48.470;9.226;2023-04-07T11:31:26;-16629.19;;;16.53;90.35
3590;BME280;1809;48.470;9.226;2023-04-07T11:33:59;-16634.53;;;16.72;87.57
3590;BME280;1809;48.470;9.226;2023-04-07T11:36:30;-16632.28;;;16.64;86.50
3590;BME280;1809;48.470;9.226;2023-04-07T11:38:57;-16624.03;;;16.34;91.01
3590;BME280;1809;48.470;9.226;2023-04-07T11:41:23;-16612.53;;;15.93;100.00
3590;BME280;1809;48.470;9.226;2023-04-07T11:44:03;-16591.94;;;15.19;100.00
3590;BME280;1809;48.470;9.226;2023-04-07T11:46:28;-16582.69;;;14.85;100.00
3590;BME280;1809;48.470;9.226;2023-04-07T11:48:53;-16581.69;;;14.82;100.00
3590;BME280;1809;48.470;9.226;2023-04-07T11:51:20;-16583.25;;;14.87;100.00
3590;BME280;1809;48.470;9.226;2023-04-07T11:53:53;-16582.97;;;14.86;100.00
3590;BME280;1809;48.470;9.226;2023-04-07T11:56:19;-16580.72;;;14.78;100.00
3590;BME280;1809;48.470;9.226;2023-04-07T11:58:54;-16579.88;;;14.75;100.00
3590;BME280;1809;48.470;9.226;2023-04-07T12:01:20;-16572.16;;;14.47;100.00
3590;BME280;1809;48.470;9.226;2023-04-07T12:06:25;-16536.97;;;13.21;100.00
3590;BME280;1809;48.470;9.226;2023-04-07T12:08:53;-16538.94;;;13.28;100.00
3590;BME280;1809;48.470;9.226;2023-04-07T12:11:18;-16548.75;;;13.63;100.00
3590;BME280;1809;48.470;9.226;2023-04-07T12:13:43;-16538.50;;;13.26;100.00
3590;BME280;1809;48.470;9.226;2023-04-07T12:16:09;-16535.56;;;13.16;100.00
3590;BME280;1809;48.470;9.226;2023-04-07T12:18:34;-16527.97;;;12.88;100.00
3590;BME280;1809;48.470;9.226;2023-04-07T12:21:00;-16519.56;;;12.58;100.00
3590;BME280;1809;48.470;9.226;2023-04-07T12:23:26;-16515.91;;;12.45;100.00
3590;BME280;1809;48.470;9.226;2023-04-07T12:25:51;-16525.44;;;12.79;100.00
3590;BME280;1809;48.470;9.226;2023-04-07T12:28:17;-16524.31;;;12.75;100.00
3590;BME280;1809;48.470;9.226;2023-04-07T12:30:42;-16533.16;;;13.07;100.00
3590;BME280;1809;48.470;9.226;2023-04-07T12:33:07;-16528.69;;;12.91;100.00
3590;BME280;1809;48.470;9.226;2023-04-07T12:35:33;-16534.72;;;13.13;100.00
3590;BME280;1809;48.470;9.226;2023-04-07T12:37:58;-16535.56;;;13.16;100.00
3590;BME280;1809;48.470;9.226;2023-04-07T12:40:23;-16536.97;;;13.21;100.00
3590;BME280;1809;48.470;9.226;2023-04-07T12:42:49;-16540.59;;;13.34;100.00
3590;BME280;1809;48.470;9.226;2023-04-07T12:45:14;-16540.59;;;13.34;100.00
3590;BME280;1809;48.470;9.226;2023-04-07T12:47:40;-16541.31;;;13.36;100.00
3590;BME280;1809;48.470;9.226;2023-04-07T12:50:06;-16554.63;;;13.84;100.00
3590;BME280;1809;48.470;9.226;2023-04-07T12:52:32;-16555.19;;;13.86;100.00
3590;BME280;1809;48.470;9.226;2023-04-07T12:54:57;-16558.56;;;13.98;100.00
3590;BME280;1809;48.470;9.226;2023-04-07T12:57:23;-16567.25;;;14.30;100.00
3590;BME280;1809;48.470;9.226;2023-04-07T12:59:49;-16562.63;;;14.13;100.00
3590;BME280;1809;48.470;9.226;2023-04-07T13:02:14;-16560.53;;;14.06;100.00
3590;BME280;1809;48.470;9.226;2023-04-07T13:04:42;-16556.19;;;13.90;100.00
3590;BME280;1809;48.470;9.226;2023-04-07T13:07:11;-16565.16;;;14.22;100.00
3590;BME280;1809;48.470;9.226;2023-04-07T13:09:36;-16580.16;;;14.76;100.00
3590;BME280;1809;48.470;9.226;2023-04-07T13:12:01;-16574.56;;;14.56;100.00
3590;BME280;1809;48.470;9.226;2023-04-07T13:14:27;-16573.28;;;14.51;100.00
3590;BME280;1809;48.470;9.226;2023-04-07T13:16:52;-16559.13;;;14.00;100.00
3590;BME280;1809;48.470;9.226;2023-04-07T13:19:17;-16555.19;;;13.86;100.00
3590;BME280;1809;48.470;9.226;2023-04-07T13:21:43;-16562.34;;;14.12;100.00
3590;BME280;1809;48.470;9.226;2023-04-07T13:24:08;-16568.09;;;14.33;100.00
3590;BME280;1809;48.470;9.226;2023-04-07T13:26:33;-16563.31;;;14.16;100.00